PWSweather.com
Personal Weather Stations
Station Observations
SPARKSRC
St. Petersburg, FL 33716

St. Petersburg, FL 33716

Lat: 27.876101, Lon: -82.657194

Elevation: 13

Station Type: Zephyr PWS-1000TD

Latest ConditionsUpdated 3:10:01 AM EDT Wednesday, Jun 26, 2019
Currently Today's Max Today's Min Today's Average
Temperature 80.8°F27.1°C 83.1°F28.4°C 80.8°F27.1°C 82.1°F27.8°C
Dew Point 71.4°F21.9°C 73.6°F23.1°C 71.4°F21.9°C 72.6°F22.6°C
Winds 0.7 mph S1.1 kmh S 6.9 mph -11.1 kmh - - 1.5 mph 2.4 kmh
Wind Gusts 2.2 mph3.5 kmh 13.6 mph21.9 kmh - -
Humidity 73% 73% 72% 73%
Pressure 30.11 in1019.6 mb 30.15 in1021.0 mb 30.11 in1019.6 mb -
Hour Temp Dew Point Humidity Winds Wind Gusts Pressure Precip Precip Rate Daily Precip Total
03:10 AM 80.8°F27.1°C 71.4°F21.9°C 73% 0.7 mph S1.1 kmh S 2.2 mph3.5 kmh 30.11 in1019.6 mb 0.00 in0.0 mm 0.00 in0.0 mm 0.00 in0.0 mm
03:05 AM 80.8°F27.1°C 71.4°F21.9°C 73% 0.7 mph S1.1 kmh S 3.8 mph6.1 kmh 30.12 in1020.0 mb 0.00 in0.0 mm 0.00 in0.0 mm 0.00 in0.0 mm
03:00 AM 81.0°F27.2°C 71.5°F21.9°C 73% 1.6 mph S2.6 kmh S 3.8 mph6.1 kmh 30.11 in1019.6 mb 0.00 in0.0 mm 0.00 in0.0 mm 0.00 in0.0 mm
02:55 AM 81.0°F27.2°C 71.5°F21.9°C 73% 1.6 mph S2.6 kmh S 3.8 mph6.1 kmh 30.11 in1019.6 mb 0.00 in0.0 mm 0.00 in0.0 mm 0.00 in0.0 mm
02:50 AM 81.1°F27.3°C 71.7°F22.1°C 73% 1.6 mph S2.6 kmh S 3.8 mph6.1 kmh 30.11 in1019.6 mb 0.00 in0.0 mm 0.00 in0.0 mm 0.00 in0.0 mm
02:45 AM 81.1°F27.3°C 71.7°F22.1°C 73% 2.2 mph S3.5 kmh S 3.1 mph5.0 kmh 30.11 in1019.6 mb 0.00 in0.0 mm 0.00 in0.0 mm 0.00 in0.0 mm
02:40 AM 81.1°F27.3°C 71.7°F22.1°C 73% 1.6 mph SSE2.6 kmh SSE 2.2 mph3.5 kmh 30.11 in1019.6 mb 0.00 in0.0 mm 0.00 in0.0 mm 0.00 in0.0 mm
02:35 AM 81.3°F27.4°C 71.9°F22.2°C 73% 0.7 mph ESE1.1 kmh ESE 3.1 mph5.0 kmh 30.12 in1020.0 mb 0.00 in0.0 mm 0.00 in0.0 mm 0.00 in0.0 mm
02:30 AM 81.3°F27.4°C 71.9°F22.2°C 73% 1.6 mph ESE2.6 kmh ESE 3.1 mph5.0 kmh 30.11 in1019.6 mb 0.00 in0.0 mm 0.00 in0.0 mm 0.00 in0.0 mm
02:25 AM 81.5°F27.5°C 72.1°F22.3°C 73% Calm Calm 2.2 mph3.5 kmh 30.12 in1020.0 mb 0.00 in0.0 mm 0.00 in0.0 mm 0.00 in0.0 mm
02:20 AM 81.5°F27.5°C 72.1°F22.3°C 73% 1.6 mph SE2.6 kmh SE 2.2 mph3.5 kmh 30.12 in1020.0 mb 0.00 in0.0 mm 0.00 in0.0 mm 0.00 in0.0 mm
02:15 AM 81.9°F27.7°C 72.4°F22.4°C 73% Calm Calm 3.1 mph5.0 kmh 30.11 in1019.6 mb 0.00 in0.0 mm 0.00 in0.0 mm 0.00 in0.0 mm
02:10 AM 81.9°F27.7°C 72.4°F22.4°C 73% 0.7 mph E1.1 kmh E 3.8 mph6.1 kmh 30.12 in1020.0 mb 0.00 in0.0 mm 0.00 in0.0 mm 0.00 in0.0 mm
02:05 AM 81.9°F27.7°C 72.4°F22.4°C 73% 1.6 mph E2.6 kmh E 4.5 mph7.2 kmh 30.12 in1020.0 mb 0.00 in0.0 mm 0.00 in0.0 mm 0.00 in0.0 mm
02:00 AM 81.9°F27.7°C 72.4°F22.4°C 73% 2.2 mph E3.5 kmh E 4.5 mph7.2 kmh 30.12 in1020.0 mb 0.00 in0.0 mm 0.00 in0.0 mm 0.00 in0.0 mm
01:55 AM 82.0°F27.8°C 72.6°F22.6°C 73% 1.6 mph W2.6 kmh W 3.1 mph5.0 kmh 30.13 in1020.3 mb 0.00 in0.0 mm 0.00 in0.0 mm 0.00 in0.0 mm
01:50 AM 82.0°F27.8°C 72.6°F22.6°C 73% Calm Calm 3.1 mph5.0 kmh 30.13 in1020.3 mb 0.00 in0.0 mm 0.00 in0.0 mm 0.00 in0.0 mm
01:45 AM 82.0°F27.8°C 72.6°F22.6°C 73% 0.7 mph WNW1.1 kmh WNW 3.1 mph5.0 kmh 30.13 in1020.3 mb 0.00 in0.0 mm 0.00 in0.0 mm 0.00 in0.0 mm
01:40 AM 82.0°F27.8°C 72.6°F22.6°C 73% 1.6 mph NW2.6 kmh NW 2.2 mph3.5 kmh 30.13 in1020.3 mb 0.00 in0.0 mm 0.00 in0.0 mm 0.00 in0.0 mm
01:35 AM 82.4°F28.0°C 72.9°F22.7°C 73% 0.7 mph N1.1 kmh N 3.1 mph5.0 kmh 30.13 in1020.3 mb 0.00 in0.0 mm 0.00 in0.0 mm 0.00 in0.0 mm
01:30 AM 82.2°F27.9°C 72.8°F22.7°C 73% Calm Calm 3.1 mph5.0 kmh 30.13 in1020.3 mb 0.00 in0.0 mm 0.00 in0.0 mm 0.00 in0.0 mm
01:25 AM 82.4°F28.0°C 72.9°F22.7°C 73% 0.7 mph NW1.1 kmh NW 5.4 mph8.7 kmh 30.14 in1020.7 mb 0.00 in0.0 mm 0.00 in0.0 mm 0.00 in0.0 mm
01:20 AM 82.6°F28.1°C 73.1°F22.8°C 73% 1.6 mph NW2.6 kmh NW 5.4 mph8.7 kmh 30.13 in1020.3 mb 0.00 in0.0 mm 0.00 in0.0 mm 0.00 in0.0 mm
01:15 AM 82.6°F28.1°C 73.1°F22.8°C 73% 2.2 mph NNW3.5 kmh NNW 3.1 mph5.0 kmh 30.13 in1020.3 mb 0.00 in0.0 mm 0.00 in0.0 mm 0.00 in0.0 mm
01:10 AM 82.4°F28.0°C 72.9°F22.7°C 73% 0.7 mph NNW1.1 kmh NNW 3.8 mph6.1 kmh 30.14 in1020.7 mb 0.00 in0.0 mm 0.00 in0.0 mm 0.00 in0.0 mm
01:05 AM 82.6°F28.1°C 72.7°F22.6°C 72% Calm Calm 3.8 mph6.1 kmh 30.14 in1020.7 mb 0.00 in0.0 mm 0.00 in0.0 mm 0.00 in0.0 mm
01:00 AM 82.6°F28.1°C 72.7°F22.6°C 72% 2.2 mph W3.5 kmh W 3.8 mph6.1 kmh 30.14 in1020.7 mb 0.00 in0.0 mm 0.00 in0.0 mm 0.00 in0.0 mm
12:55 AM 82.6°F28.1°C 72.7°F22.6°C 72% 2.2 mph W3.5 kmh W 3.8 mph6.1 kmh 30.14 in1020.7 mb 0.00 in0.0 mm 0.00 in0.0 mm 0.00 in0.0 mm
12:50 AM 82.8°F28.2°C 73.3°F22.9°C 73% Calm Calm 5.4 mph8.7 kmh 30.15 in1021.0 mb 0.00 in0.0 mm 0.00 in0.0 mm 0.00 in0.0 mm
12:45 AM 82.8°F28.2°C 73.3°F22.9°C 73% Calm Calm 5.4 mph8.7 kmh 30.14 in1020.7 mb 0.00 in0.0 mm 0.00 in0.0 mm 0.00 in0.0 mm
12:40 AM 82.9°F28.3°C 73.5°F23.1°C 73% 3.8 mph NW6.1 kmh NW 5.4 mph8.7 kmh 30.14 in1020.7 mb 0.00 in0.0 mm 0.00 in0.0 mm 0.00 in0.0 mm
12:35 AM 82.9°F28.3°C 73.5°F23.1°C 73% Calm Calm 3.1 mph5.0 kmh 30.14 in1020.7 mb 0.00 in0.0 mm 0.00 in0.0 mm 0.00 in0.0 mm
12:30 AM 82.9°F28.3°C 73.5°F23.1°C 73% 2.2 mph E3.5 kmh E 3.8 mph6.1 kmh 30.14 in1020.7 mb 0.00 in0.0 mm 0.00 in0.0 mm 0.00 in0.0 mm
12:25 AM 83.1°F28.4°C 73.6°F23.1°C 73% 0.7 mph E1.1 kmh E 4.5 mph7.2 kmh 30.14 in1020.7 mb 0.00 in0.0 mm 0.00 in0.0 mm 0.00 in0.0 mm
12:20 AM 82.9°F28.3°C 73.5°F23.1°C 73% 2.2 mph E3.5 kmh E 13.6 mph21.9 kmh 30.14 in1020.7 mb 0.00 in0.0 mm 0.00 in0.0 mm 0.00 in0.0 mm
12:15 AM 82.8°F28.2°C 73.3°F22.9°C 73% 3.1 mph ESE5.0 kmh ESE 13.6 mph21.9 kmh 30.14 in1020.7 mb 0.00 in0.0 mm 0.00 in0.0 mm 0.00 in0.0 mm
12:10 AM 82.6°F28.1°C 73.1°F22.8°C 73% 6.0 mph SE9.7 kmh SE 11.4 mph18.3 kmh 30.14 in1020.7 mb 0.00 in0.0 mm 0.00 in0.0 mm 0.00 in0.0 mm
12:05 AM 82.6°F28.1°C 72.7°F22.6°C 72% 6.9 mph SSW11.1 kmh SSW 9.2 mph14.8 kmh 30.14 in1020.7 mb 0.00 in0.0 mm 0.00 in0.0 mm 0.00 in0.0 mm
12:00 AM 82.8°F28.2°C 72.9°F22.7°C 72% Calm Calm 2.2 mph3.5 kmh 30.13 in1020.3 mb 0.00 in0.0 mm 0.00 in0.0 mm 0.00 in0.0 mm